Time;durP1;ratioP1;P1;durP2;ratioP2;P2;SDS_P1;SDS_P2;PMS_P1;PMS_P2;Temp;Humidity;BMP_temperature;BMP_pressure;BME280_temperature;BME280_humidity;BME280_pressure;Samples;Min_cycle;Max_cycle;Signal;HPM_P1;HPM_P2
2023/06/21 00:00:58;;;;;;;27.20;24.60;;;;;;;;;;5055013;28;20045;-72
2023/06/21 00:03:25;;;;;;;25.40;22.85;;;;;;;;;;5054902;28;20123;-73
2023/06/21 00:05:51;;;;;;;23.90;21.60;;;;;;;;;;5057680;28;20536;-73
2023/06/21 00:08:17;;;;;;;27.17;23.80;;;;;;;;;;5056611;28;20045;-73
2023/06/21 00:10:44;;;;;;;26.70;24.20;;;;;;;;;;5060204;28;20044;-73
2023/06/21 00:13:10;;;;;;;24.67;22.45;;;;;;;;;;5055881;28;20049;-73
2023/06/21 00:15:36;;;;;;;24.98;22.65;;;;;;;;;;5058255;28;20048;-74
2023/06/21 00:18:03;;;;;;;22.80;20.48;;;;;;;;;;5055983;28;20056;-71
2023/06/21 00:20:29;;;;;;;23.58;21.10;;;;;;;;;;5055777;28;20044;-73
2023/06/21 00:22:58;;;;;;;22.05;19.98;;;;;;;;;;5058830;28;20041;-73
2023/06/21 00:25:24;;;;;;;22.70;20.52;;;;;;;;;;5054833;28;21008;-72
2023/06/21 00:27:50;;;;;;;20.92;18.83;;;;;;;;;;5058417;28;20475;-73
2023/06/21 00:30:16;;;;;;;23.38;21.10;;;;;;;;;;5059545;28;20096;-74
2023/06/21 00:32:42;;;;;;;21.60;19.48;;;;;;;;;;5059841;28;20081;-73
2023/06/21 00:35:08;;;;;;;21.38;19.35;;;;;;;;;;5058401;28;20116;-73
2023/06/21 00:37:37;;;;;;;20.48;18.58;;;;;;;;;;5059709;28;20033;-73
2023/06/21 00:40:03;;;;;;;20.65;18.63;;;;;;;;;;5057938;28;20045;-73
2023/06/21 00:42:30;;;;;;;20.35;18.42;;;;;;;;;;5059322;28;20040;-73
2023/06/21 00:44:56;;;;;;;20.75;18.65;;;;;;;;;;5064157;28;20101;-73
2023/06/21 00:47:22;;;;;;;22.02;19.83;;;;;;;;;;5076549;28;20047;-74
2023/06/21 00:49:48;;;;;;;21.10;18.90;;;;;;;;;;5060042;28;20051;-73
2023/06/21 00:52:14;;;;;;;19.38;17.45;;;;;;;;;;5064139;28;20074;-73
2023/06/21 00:54:41;;;;;;;22.67;20.23;;;;;;;;;;5058116;28;20090;-73
2023/06/21 00:57:07;;;;;;;19.92;18.05;;;;;;;;;;5058261;28;20479;-73
2023/06/21 00:59:33;;;;;;;19.83;17.35;;;;;;;;;;5058700;28;20045;-74
2023/06/21 01:02:01;;;;;;;19.08;17.30;;;;;;;;;;5056214;28;20045;-73
2023/06/21 01:04:31;;;;;;;23.02;18.63;;;;;;;;;;5057110;28;20502;-74
2023/06/21 01:07:10;;;;;;;18.03;16.10;;;;;;;;;;5056435;28;20452;-72
2023/06/21 01:09:39;;;;;;;20.17;18.17;;;;;;;;;;5058153;28;20303;-73
2023/06/21 01:12:10;;;;;;;21.95;19.65;;;;;;;;;;5059009;28;20049;-73
2023/06/21 01:14:51;;;;;;;21.15;18.95;;;;;;;;;;5055760;28;20053;-73
2023/06/21 01:17:17;;;;;;;19.70;17.52;;;;;;;;;;5053970;28;20056;-73
2023/06/21 01:19:48;;;;;;;21.83;18.88;;;;;;;;;;5054216;28;20192;-71
2023/06/21 01:22:20;;;;;;;20.93;18.73;;;;;;;;;;5056713;28;20050;-73
2023/06/21 01:24:58;;;;;;;20.55;18.35;;;;;;;;;;5052398;28;20299;-74
2023/06/21 01:27:27;;;;;;;20.90;18.80;;;;;;;;;;5055434;28;20079;-74
2023/06/21 01:29:55;;;;;;;18.50;16.60;;;;;;;;;;5053756;28;20049;-74
2023/06/21 01:32:22;;;;;;;19.55;17.55;;;;;;;;;;5060304;28;20494;-72
2023/06/21 01:34:48;;;;;;;19.20;17.13;;;;;;;;;;5068204;28;20048;-72
2023/06/21 01:37:14;;;;;;;21.90;19.58;;;;;;;;;;5060322;28;20053;-74
2023/06/21 01:39:41;;;;;;;19.77;17.80;;;;;;;;;;5056588;28;20106;-73
2023/06/21 01:42:07;;;;;;;21.33;19.23;;;;;;;;;;5057273;28;20079;-74
2023/06/21 01:44:33;;;;;;;21.48;19.10;;;;;;;;;;5069429;28;20053;-75
2023/06/21 01:46:59;;;;;;;19.05;17.25;;;;;;;;;;5056017;28;20049;-73
2023/06/21 01:49:26;;;;;;;22.00;19.85;;;;;;;;;;5057108;28;20049;-74
2023/06/21 01:51:53;;;;;;;20.35;18.35;;;;;;;;;;5060081;28;20423;-73
2023/06/21 01:54:20;;;;;;;21.48;19.27;;;;;;;;;;5058621;28;20536;-73
2023/06/21 01:56:47;;;;;;;20.15;18.25;;;;;;;;;;5057895;28;20158;-73
2023/06/21 01:59:14;;;;;;;23.42;20.92;;;;;;;;;;5056509;28;20037;-73
2023/06/21 02:01:42;;;;;;;23.45;21.15;;;;;;;;;;5059398;28;20049;-73
2023/06/21 02:04:08;;;;;;;23.30;20.90;;;;;;;;;;5057494;28;20047;-73
2023/06/21 02:06:35;;;;;;;24.80;22.30;;;;;;;;;;5058229;28;20406;-73
2023/06/21 02:09:05;;;;;;;23.77;21.38;;;;;;;;;;5058128;28;20488;-74
2023/06/21 02:11:31;;;;;;;23.52;21.10;;;;;;;;;;5058790;28;20041;-73
2023/06/21 02:13:57;;;;;;;23.67;21.17;;;;;;;;;;5056422;28;20087;-72
2023/06/21 02:16:27;;;;;;;25.23;22.00;;;;;;;;;;5064990;28;20064;-74
2023/06/21 02:18:53;;;;;;;25.98;23.38;;;;;;;;;;5051053;28;20103;-74
2023/06/21 02:21:20;;;;;;;21.80;19.60;;;;;;;;;;5053390;28;20410;-74
2023/06/21 02:23:48;;;;;;;24.52;22.23;;;;;;;;;;5056476;28;20376;-73
2023/06/21 02:26:14;;;;;;;23.73;21.27;;;;;;;;;;5055226;28;20037;-74
2023/06/21 02:28:41;;;;;;;23.90;21.50;;;;;;;;;;5055036;28;20503;-74
2023/06/21 02:31:07;;;;;;;26.38;23.67;;;;;;;;;;5056920;28;20049;-73
2023/06/21 02:33:33;;;;;;;27.73;24.92;;;;;;;;;;5057492;28;20502;-72
2023/06/21 02:35:59;;;;;;;26.52;23.83;;;;;;;;;;5055919;28;20045;-74
2023/06/21 02:38:25;;;;;;;27.80;25.02;;;;;;;;;;5055488;28;20041;-74
2023/06/21 02:40:52;;;;;;;24.67;22.27;;;;;;;;;;5052852;28;20041;-74
2023/06/21 02:43:18;;;;;;;29.08;26.15;;;;;;;;;;5054075;28;20041;-73
2023/06/21 02:45:45;;;;;;;29.23;26.20;;;;;;;;;;5055697;28;20128;-73
2023/06/21 02:48:11;;;;;;;32.45;29.15;;;;;;;;;;5057700;28;20045;-73
2023/06/21 02:50:37;;;;;;;33.40;29.90;;;;;;;;;;5057424;28;20041;-74
2023/06/21 02:53:03;;;;;;;32.17;28.83;;;;;;;;;;5058953;28;20580;-74
2023/06/21 02:55:29;;;;;;;35.35;31.52;;;;;;;;;;5059739;28;20040;-72
2023/06/21 02:57:56;;;;;;;35.45;31.70;;;;;;;;;;5060996;28;20045;-74
2023/06/21 03:00:27;;;;;;;35.78;32.28;;;;;;;;;;5058452;28;20092;-72
2023/06/21 03:02:54;;;;;;;36.97;33.03;;;;;;;;;;5055507;28;20068;-74
2023/06/21 03:05:20;;;;;;;38.70;34.70;;;;;;;;;;5057099;28;20041;-73
2023/06/21 03:07:47;;;;;;;38.00;34.05;;;;;;;;;;5054632;28;20131;-73
2023/06/21 03:10:14;;;;;;;35.85;32.20;;;;;;;;;;5054346;28;20077;-73
2023/06/21 03:12:41;;;;;;;42.03;37.22;;;;;;;;;;5053161;28;20045;-74
2023/06/21 03:15:08;;;;;;;39.92;35.75;;;;;;;;;;5059246;28;20049;-74
2023/06/21 03:17:35;;;;;;;41.92;37.38;;;;;;;;;;5051804;28;20051;-73
2023/06/21 03:20:01;;;;;;;39.80;35.78;;;;;;;;;;5050720;28;20044;-74
2023/06/21 03:22:28;;;;;;;41.08;36.72;;;;;;;;;;5048481;28;20048;-73
2023/06/21 03:24:54;;;;;;;42.47;38.08;;;;;;;;;;5052642;28;20083;-73
2023/06/21 03:27:20;;;;;;;38.70;34.67;;;;;;;;;;5048343;28;20411;-73
2023/06/21 03:29:46;;;;;;;43.42;37.95;;;;;;;;;;5053941;28;20056;-74
2023/06/21 03:32:12;;;;;;;39.72;35.50;;;;;;;;;;5061891;28;20095;-73
2023/06/21 03:34:39;;;;;;;40.20;35.90;;;;;;;;;;5058228;28;20412;-74
2023/06/21 03:37:05;;;;;;;43.05;38.38;;;;;;;;;;5060065;28;20049;-73
2023/06/21 03:39:32;;;;;;;43.95;39.25;;;;;;;;;;5057619;28;20064;-72
2023/06/21 03:41:58;;;;;;;36.92;32.95;;;;;;;;;;5056203;28;20047;-74
2023/06/21 03:44:24;;;;;;;41.75;37.35;;;;;;;;;;5058107;28;20048;-73
2023/06/21 03:46:50;;;;;;;41.25;37.05;;;;;;;;;;5055764;28;20049;-74
2023/06/21 03:49:17;;;;;;;42.55;37.97;;;;;;;;;;5058374;28;20041;-73
2023/06/21 03:51:43;;;;;;;38.13;34.28;;;;;;;;;;5058150;28;20545;-73
2023/06/21 03:54:09;;;;;;;41.00;36.80;;;;;;;;;;5058189;28;20041;-74
2023/06/21 03:56:35;;;;;;;38.85;34.85;;;;;;;;;;5056652;28;20044;-74
2023/06/21 03:59:01;;;;;;;38.75;34.90;;;;;;;;;;5057850;28;20055;-74
2023/06/21 04:01:27;;;;;;;43.03;38.42;;;;;;;;;;5044990;28;20087;-74
2023/06/21 04:03:53;;;;;;;42.70;38.10;;;;;;;;;;5067840;28;20048;-72
2023/06/21 04:06:19;;;;;;;43.38;38.72;;;;;;;;;;5057456;28;20067;-72
2023/06/21 04:08:45;;;;;;;41.35;37.20;;;;;;;;;;5057145;28;20045;-73
2023/06/21 04:11:12;;;;;;;42.63;38.33;;;;;;;;;;5055485;28;20049;-73
2023/06/21 04:13:38;;;;;;;40.95;36.75;;;;;;;;;;5044252;28;20045;-74
2023/06/21 04:16:04;;;;;;;41.63;37.53;;;;;;;;;;5056227;28;20041;-73
2023/06/21 04:18:31;;;;;;;41.78;37.33;;;;;;;;;;5057262;28;20072;-73
2023/06/21 04:20:57;;;;;;;41.92;37.72;;;;;;;;;;5038642;28;20048;-74
2023/06/21 04:23:23;;;;;;;42.53;38.15;;;;;;;;;;5053472;28;20486;-73
2023/06/21 04:25:49;;;;;;;41.95;37.80;;;;;;;;;;5056216;28;20049;-74
2023/06/21 04:28:15;;;;;;;41.20;37.03;;;;;;;;;;5057115;28;20487;-73
2023/06/21 04:30:41;;;;;;;40.72;36.83;;;;;;;;;;5057317;28;20053;-73
2023/06/21 04:33:08;;;;;;;40.20;36.17;;;;;;;;;;5054095;28;20370;-74
2023/06/21 04:35:34;;;;;;;41.20;37.28;;;;;;;;;;5055379;28;20095;-73
2023/06/21 04:38:00;;;;;;;37.10;33.60;;;;;;;;;;5056170;28;20041;-72
2023/06/21 04:40:26;;;;;;;41.08;37.22;;;;;;;;;;5055026;28;20041;-72
2023/06/21 04:42:55;;;;;;;38.00;34.40;;;;;;;;;;5048752;28;20058;-72
2023/06/21 04:45:21;;;;;;;39.53;35.55;;;;;;;;;;5041318;28;20081;-73
2023/06/21 04:47:48;;;;;;;38.92;35.35;;;;;;;;;;5061155;28;20041;-74
2023/06/21 04:50:14;;;;;;;43.03;38.90;;;;;;;;;;5058590;28;20055;-74
2023/06/21 04:52:40;;;;;;;41.45;37.47;;;;;;;;;;5057231;28;20056;-73
2023/06/21 04:55:07;;;;;;;39.67;35.88;;;;;;;;;;5046286;28;20091;-73
2023/06/21 04:57:33;;;;;;;40.75;36.92;;;;;;;;;;5054477;28;20043;-73
2023/06/21 05:00:02;;;;;;;39.25;35.55;;;;;;;;;;5052293;28;20507;-74
2023/06/21 05:02:28;;;;;;;40.85;36.85;;;;;;;;;;5052365;28;20051;-73
2023/06/21 05:04:54;;;;;;;39.53;35.70;;;;;;;;;;5054941;28;20052;-73
2023/06/21 05:07:23;;;;;;;39.80;36.10;;;;;;;;;;5055839;28;20125;-74
2023/06/21 05:09:49;;;;;;;40.22;36.35;;;;;;;;;;5054637;28;20178;-73
2023/06/21 05:12:15;;;;;;;41.72;37.83;;;;;;;;;;5071102;28;20052;-74
2023/06/21 05:14:42;;;;;;;38.58;34.92;;;;;;;;;;5059513;28;20045;-72
2023/06/21 05:17:08;;;;;;;40.63;36.83;;;;;;;;;;5054293;28;20121;-73
2023/06/21 05:19:35;;;;;;;44.20;39.88;;;;;;;;;;5052936;28;20100;-72
2023/06/21 05:22:01;;;;;;;41.38;37.47;;;;;;;;;;5055044;28;20141;-73
2023/06/21 05:24:27;;;;;;;42.67;38.45;;;;;;;;;;5054416;28;20151;-72
2023/06/21 05:26:53;;;;;;;41.92;37.70;;;;;;;;;;5050932;28;20063;-74
2023/06/21 05:29:19;;;;;;;42.70;38.50;;;;;;;;;;5026912;28;20052;-74
2023/06/21 05:31:45;;;;;;;43.42;39.22;;;;;;;;;;5053931;28;20044;-73
2023/06/21 05:34:11;;;;;;;40.85;36.95;;;;;;;;;;5055968;28;20045;-75
2023/06/21 05:36:37;;;;;;;39.88;35.90;;;;;;;;;;5056589;28;20056;-73
2023/06/21 05:39:04;;;;;;;40.55;36.78;;;;;;;;;;5070240;28;20045;-74
2023/06/21 05:41:30;;;;;;;41.65;37.92;;;;;;;;;;5055536;28;20084;-73
2023/06/21 05:43:56;;;;;;;42.95;38.55;;;;;;;;;;5055267;28;20041;-73
2023/06/21 05:46:22;;;;;;;41.40;37.47;;;;;;;;;;5055381;28;20057;-74
2023/06/21 05:48:48;;;;;;;45.65;41.25;;;;;;;;;;5054353;28;20091;-73
2023/06/21 05:51:14;;;;;;;42.97;38.78;;;;;;;;;;5054980;28;20048;-74
2023/06/21 05:53:40;;;;;;;43.47;39.13;;;;;;;;;;5060688;28;20048;-73
2023/06/21 05:56:06;;;;;;;43.92;39.72;;;;;;;;;;5057634;28;20414;-73
2023/06/21 05:58:32;;;;;;;44.17;39.58;;;;;;;;;;5046855;28;20140;-73
2023/06/21 06:00:58;;;;;;;42.65;38.28;;;;;;;;;;5066107;28;20133;-74
2023/06/21 06:03:24;;;;;;;42.33;38.22;;;;;;;;;;5049342;28;20052;-74
2023/06/21 06:05:50;;;;;;;42.60;38.42;;;;;;;;;;5055518;28;20045;-74
2023/06/21 06:08:16;;;;;;;40.47;36.78;;;;;;;;;;5054178;28;20075;-74
2023/06/21 06:10:42;;;;;;;40.38;36.40;;;;;;;;;;5052611;28;20045;-72
2023/06/21 06:13:09;;;;;;;38.85;35.05;;;;;;;;;;5051726;28;20141;-73
2023/06/21 06:15:35;;;;;;;37.83;34.35;;;;;;;;;;5065484;28;20041;-72
2023/06/21 06:18:01;;;;;;;35.17;31.95;;;;;;;;;;5055142;28;20048;-71
2023/06/21 06:20:27;;;;;;;32.70;29.50;;;;;;;;;;5051906;28;20052;-73
2023/06/21 06:22:53;;;;;;;34.72;31.63;;;;;;;;;;5054566;28;20045;-73
2023/06/21 06:25:19;;;;;;;30.15;27.42;;;;;;;;;;5054179;28;20064;-71
2023/06/21 06:27:46;;;;;;;34.28;31.10;;;;;;;;;;5056758;28;20529;-73
2023/06/21 06:30:12;;;;;;;30.48;27.67;;;;;;;;;;5057625;28;20049;-72
2023/06/21 06:32:38;;;;;;;30.38;27.52;;;;;;;;;;5059296;28;20049;-73
2023/06/21 06:35:05;;;;;;;28.92;26.30;;;;;;;;;;5058604;28;20183;-73
2023/06/21 06:37:31;;;;;;;27.40;24.80;;;;;;;;;;5062174;28;20522;-73
2023/06/21 06:39:57;;;;;;;28.90;26.35;;;;;;;;;;5060837;28;20403;-73
2023/06/21 06:42:23;;;;;;;27.15;24.65;;;;;;;;;;5058436;28;20055;-73
2023/06/21 06:44:50;;;;;;;26.48;24.17;;;;;;;;;;5056627;28;20053;-73
2023/06/21 06:47:17;;;;;;;25.63;23.27;;;;;;;;;;5061612;28;20099;-73
2023/06/21 06:49:43;;;;;;;27.80;25.38;;;;;;;;;;5063307;28;20053;-72
2023/06/21 06:52:10;;;;;;;27.10;24.55;;;;;;;;;;5056103;28;20041;-73
2023/06/21 06:54:36;;;;;;;25.15;22.85;;;;;;;;;;5055335;28;20048;-73
2023/06/21 06:57:02;;;;;;;26.35;24.02;;;;;;;;;;5055522;28;20110;-72
2023/06/21 06:59:29;;;;;;;25.35;23.10;;;;;;;;;;5054135;28;20033;-72
2023/06/21 07:01:55;;;;;;;24.40;22.02;;;;;;;;;;5056849;28;20483;-72
2023/06/21 07:04:21;;;;;;;26.25;24.00;;;;;;;;;;5059456;28;20414;-73
2023/06/21 07:06:47;;;;;;;24.90;22.23;;;;;;;;;;5059627;28;20428;-73
2023/06/21 07:09:13;;;;;;;25.25;22.75;;;;;;;;;;5053898;28;20048;-74
2023/06/21 07:11:39;;;;;;;24.95;22.65;;;;;;;;;;5055815;28;20041;-72
2023/06/21 07:14:05;;;;;;;23.40;21.40;;;;;;;;;;5053484;28;20053;-73
2023/06/21 07:16:34;;;;;;;25.20;22.75;;;;;;;;;;5047781;28;20052;-71
2023/06/21 07:19:02;;;;;;;22.65;20.65;;;;;;;;;;5055719;28;20045;-75
2023/06/21 07:21:29;;;;;;;22.70;20.50;;;;;;;;;;5056300;28;20045;-74
2023/06/21 07:23:55;;;;;;;23.45;21.42;;;;;;;;;;5047647;28;20048;-73
2023/06/21 07:26:21;;;;;;;22.67;20.63;;;;;;;;;;5054813;28;20089;-73
2023/06/21 07:28:47;;;;;;;22.80;20.83;;;;;;;;;;5045077;28;20088;-72
2023/06/21 07:31:13;;;;;;;22.00;19.90;;;;;;;;;;5041569;28;20388;-72
2023/06/21 07:33:39;;;;;;;19.52;17.83;;;;;;;;;;5049061;28;20139;-73
2023/06/21 07:36:06;;;;;;;19.27;17.58;;;;;;;;;;5056270;28;20053;-73
2023/06/21 07:38:32;;;;;;;19.70;17.90;;;;;;;;;;5056131;28;20053;-73
2023/06/21 07:40:58;;;;;;;20.92;18.92;;;;;;;;;;5052197;28;20513;-73
2023/06/21 07:43:24;;;;;;;20.13;18.13;;;;;;;;;;5060430;28;20207;-72
2023/06/21 07:45:50;;;;;;;19.60;17.80;;;;;;;;;;5056755;28;20057;-72
2023/06/21 07:48:16;;;;;;;19.75;18.00;;;;;;;;;;5061306;28;20049;-74
2023/06/21 07:50:42;;;;;;;20.48;18.48;;;;;;;;;;5062733;28;20040;-74
2023/06/21 07:53:08;;;;;;;17.20;15.60;;;;;;;;;;5057245;28;20102;-73
2023/06/21 07:55:34;;;;;;;17.08;15.40;;;;;;;;;;5056151;28;20931;-74
2023/06/21 07:58:00;;;;;;;18.60;16.77;;;;;;;;;;5054544;28;20049;-73
2023/06/21 08:00:26;;;;;;;14.88;13.45;;;;;;;;;;5057163;28;20067;-73
2023/06/21 08:02:53;;;;;;;16.67;14.52;;;;;;;;;;5066767;28;20053;-73
2023/06/21 08:05:20;;;;;;;17.55;15.75;;;;;;;;;;5073859;28;20049;-73
2023/06/21 08:07:46;;;;;;;17.63;15.95;;;;;;;;;;5069132;28;20045;-73
2023/06/21 08:10:12;;;;;;;12.88;11.52;;;;;;;;;;5074771;28;20052;-74
2023/06/21 08:12:39;;;;;;;12.07;10.38;;;;;;;;;;5056351;28;20060;-73
2023/06/21 08:15:05;;;;;;;12.82;10.30;;;;;;;;;;5067009;28;20502;-73
2023/06/21 08:17:31;;;;;;;12.50;9.85;;;;;;;;;;5054460;28;20032;-72
2023/06/21 08:19:58;;;;;;;10.95;9.25;;;;;;;;;;5052169;28;20060;-72
2023/06/21 08:22:25;;;;;;;11.07;9.60;;;;;;;;;;5053473;28;20049;-72
2023/06/21 08:24:51;;;;;;;12.90;7.85;;;;;;;;;;5051960;28;20406;-74
2023/06/21 08:27:18;;;;;;;9.77;7.50;;;;;;;;;;5054021;28;20048;-73
2023/06/21 08:29:44;;;;;;;10.27;8.82;;;;;;;;;;5053489;28;20049;-72
2023/06/21 08:32:10;;;;;;;10.35;8.57;;;;;;;;;;5052187;28;20051;-73
2023/06/21 08:34:36;;;;;;;11.98;8.00;;;;;;;;;;5054313;28;20052;-73
2023/06/21 08:37:02;;;;;;;10.63;7.13;;;;;;;;;;5048476;28;20075;-72
2023/06/21 08:39:28;;;;;;;8.85;6.50;;;;;;;;;;5045774;28;20120;-73
2023/06/21 08:41:54;;;;;;;9.40;5.63;;;;;;;;;;5053391;28;20072;-73
2023/06/21 08:44:20;;;;;;;11.13;7.53;;;;;;;;;;5053898;28;20167;-72
2023/06/21 08:46:50;;;;;;;9.70;7.45;;;;;;;;;;5052380;28;20491;-74
2023/06/21 08:49:18;;;;;;;9.82;6.63;;;;;;;;;;5051113;28;20513;-73
2023/06/21 08:51:45;;;;;;;9.20;6.10;;;;;;;;;;5051329;28;20057;-73
2023/06/21 08:54:12;;;;;;;9.20;5.85;;;;;;;;;;5054251;28;20049;-73
2023/06/21 08:56:42;;;;;;;8.93;5.82;;;;;;;;;;5053107;28;20049;-72
2023/06/21 08:59:16;;;;;;;9.07;6.25;;;;;;;;;;5053704;28;20049;-73
2023/06/21 09:02:03;;;;;;;9.73;6.80;;;;;;;;;;5052189;28;20068;-73
2023/06/21 09:04:29;;;;;;;8.52;5.60;;;;;;;;;;5038113;28;20045;-72
2023/06/21 09:06:56;;;;;;;8.60;5.57;;;;;;;;;;5044579;28;20063;-72
2023/06/21 09:09:26;;;;;;;10.55;5.80;;;;;;;;;;5044847;28;20045;-72
2023/06/21 09:11:53;;;;;;;7.50;4.95;;;;;;;;;;5045440;28;20045;-72
2023/06/21 09:14:21;;;;;;;7.22;4.70;;;;;;;;;;5053837;28;20053;-73
2023/06/21 09:16:47;;;;;;;7.93;5.25;;;;;;;;;;5052044;28;20301;-73
2023/06/21 09:19:15;;;;;;;9.02;5.93;;;;;;;;;;5053370;28;20052;-72
2023/06/21 09:21:42;;;;;;;7.55;4.38;;;;;;;;;;5052333;28;20053;-73
2023/06/21 09:24:08;;;;;;;7.82;4.80;;;;;;;;;;5053085;28;20479;-73
2023/06/21 09:26:35;;;;;;;7.40;4.70;;;;;;;;;;5053990;28;20049;-73
2023/06/21 09:29:01;;;;;;;8.18;4.60;;;;;;;;;;5068828;28;20050;-73
2023/06/21 09:31:27;;;;;;;6.88;4.43;;;;;;;;;;5047731;28;20041;-74
2023/06/21 09:33:56;;;;;;;8.77;3.72;;;;;;;;;;5044928;28;20067;-74
2023/06/21 09:36:22;;;;;;;6.95;3.50;;;;;;;;;;5046845;28;20912;-73
2023/06/21 09:38:48;;;;;;;6.80;3.17;;;;;;;;;;5051488;28;20037;-74
2023/06/21 09:41:14;;;;;;;7.35;3.78;;;;;;;;;;5049703;28;20048;-73
2023/06/21 09:43:41;;;;;;;6.88;4.32;;;;;;;;;;5058292;28;20124;-74
2023/06/21 09:46:09;;;;;;;6.18;3.30;;;;;;;;;;5060358;28;20057;-74
2023/06/21 09:48:36;;;;;;;6.00;3.38;;;;;;;;;;5058291;28;20049;-74
2023/06/21 09:51:02;;;;;;;7.18;3.17;;;;;;;;;;5060992;28;20096;-76
2023/06/21 09:53:30;;;;;;;6.30;3.35;;;;;;;;;;5047647;28;20045;-74
2023/06/21 09:55:56;;;;;;;6.63;3.50;;;;;;;;;;5054614;28;20049;-75
2023/06/21 09:58:23;;;;;;;7.10;3.25;;;;;;;;;;5056227;28;20092;-72
2023/06/21 10:00:49;;;;;;;6.47;3.38;;;;;;;;;;5057536;28;20041;-75
2023/06/21 10:03:15;;;;;;;6.90;2.90;;;;;;;;;;5060694;28;20037;-73
2023/06/21 10:05:54;;;;;;;6.78;3.35;;;;;;;;;;5062318;28;20102;-74
2023/06/21 10:08:28;;;;;;;5.68;3.47;;;;;;;;;;5057004;28;20211;-74
2023/06/21 10:10:54;;;;;;;6.68;3.90;;;;;;;;;;5061501;28;20507;-73
2023/06/21 10:13:26;;;;;;;6.57;3.40;;;;;;;;;;5062886;28;20084;-74
2023/06/21 10:15:53;;;;;;;5.80;3.10;;;;;;;;;;5062521;28;20521;-74
2023/06/21 10:18:19;;;;;;;5.93;3.30;;;;;;;;;;5058629;28;20131;-73
2023/06/21 10:20:46;;;;;;;6.95;3.13;;;;;;;;;;5059585;28;20041;-73
2023/06/21 10:23:15;;;;;;;6.65;3.08;;;;;;;;;;5060658;28;20044;-73
2023/06/21 10:25:43;;;;;;;5.63;2.88;;;;;;;;;;5058946;28;20084;-73
2023/06/21 10:28:10;;;;;;;7.32;3.47;;;;;;;;;;5059392;28;20052;-74
2023/06/21 10:30:37;;;;;;;5.60;2.88;;;;;;;;;;5075857;28;20049;-74
2023/06/21 10:33:04;;;;;;;6.47;3.00;;;;;;;;;;5059495;28;20049;-73
2023/06/21 10:35:34;;;;;;;10.40;3.85;;;;;;;;;;5059686;28;20075;-74
2023/06/21 10:38:23;;;;;;;5.60;2.80;;;;;;;;;;5044247;28;20509;-73
2023/06/21 10:40:50;;;;;;;8.15;2.60;;;;;;;;;;5059907;28;20127;-73
2023/06/21 10:43:16;;;;;;;6.03;2.83;;;;;;;;;;5059599;28;20083;-74
2023/06/21 10:45:44;;;;;;;5.20;2.63;;;;;;;;;;5056072;28;20110;-72
2023/06/21 10:48:11;;;;;;;6.63;3.13;;;;;;;;;;5055623;28;20406;-74
2023/06/21 10:50:38;;;;;;;7.28;3.47;;;;;;;;;;5060830;28;20048;-73
2023/06/21 10:53:05;;;;;;;6.47;3.08;;;;;;;;;;5059083;28;20098;-73
2023/06/21 10:55:32;;;;;;;6.10;2.67;;;;;;;;;;5060632;28;20500;-74
2023/06/21 10:57:58;;;;;;;6.68;3.08;;;;;;;;;;5059857;28;20402;-73
2023/06/21 11:00:25;;;;;;;8.32;3.40;;;;;;;;;;5058455;28;20049;-73
2023/06/21 11:02:52;;;;;;;6.07;3.03;;;;;;;;;;5059477;28;20041;-73
2023/06/21 11:05:19;;;;;;;7.43;3.30;;;;;;;;;;5061775;28;20127;-73
2023/06/21 11:07:56;;;;;;;6.45;3.53;;;;;;;;;;5058018;28;20048;-72
2023/06/21 11:10:43;;;;;;;5.80;2.88;;;;;;;;;;5058738;28;20053;-74
2023/06/21 11:13:10;;;;;;;5.90;3.38;;;;;;;;;;5059587;28;20052;-74
2023/06/21 11:15:39;;;;;;;7.45;3.28;;;;;;;;;;5058678;28;20186;-74
2023/06/21 11:18:06;;;;;;;6.53;3.10;;;;;;;;;;5057463;28;20045;-74
2023/06/21 11:20:43;;;;;;;6.10;3.28;;;;;;;;;;5061674;28;20049;-74
2023/06/21 11:23:10;;;;;;;5.90;2.90;;;;;;;;;;5064232;28;20068;-74
2023/06/21 11:25:36;;;;;;;7.10;2.95;;;;;;;;;;5061734;28;20041;-74
2023/06/21 11:28:22;;;;;;;5.45;2.53;;;;;;;;;;5050009;28;20049;-73
2023/06/21 11:31:10;;;;;;;5.85;2.70;;;;;;;;;;5052622;28;20051;-73
2023/06/21 11:33:55;;;;;;;5.97;2.65;;;;;;;;;;5057631;28;20491;-73
2023/06/21 11:36:29;;;;;;;5.82;2.58;;;;;;;;;;5073011;28;20045;-73
2023/06/21 11:38:59;;;;;;;6.25;1.95;;;;;;;;;;5060597;28;20151;-74
2023/06/21 11:41:43;;;;;;;5.28;2.20;;;;;;;;;;5057452;28;20108;-74
2023/06/21 11:44:11;;;;;;;5.97;2.40;;;;;;;;;;5039274;28;20080;-73
2023/06/21 11:46:39;;;;;;;6.40;2.40;;;;;;;;;;5058434;28;20088;-73
2023/06/21 11:49:05;;;;;;;5.13;2.40;;;;;;;;;;5057990;28;20084;-73
2023/06/21 11:51:34;;;;;;;5.45;2.38;;;;;;;;;;5057103;28;20094;-73
2023/06/21 11:54:01;;;;;;;4.55;2.10;;;;;;;;;;5059029;28;20044;-73
2023/06/21 11:56:30;;;;;;;4.43;2.03;;;;;;;;;;5060636;28;20052;-73
2023/06/21 11:58:58;;;;;;;4.63;2.10;;;;;;;;;;5060617;28;20037;-75
2023/06/21 12:01:24;;;;;;;5.68;2.15;;;;;;;;;;5057422;28;20091;-73
2023/06/21 12:03:57;;;;;;;6.90;2.00;;;;;;;;;;5057128;28;20051;-72
2023/06/21 12:06:23;;;;;;;4.20;1.90;;;;;;;;;;5054930;28;20147;-73
2023/06/21 12:08:51;;;;;;;5.05;2.00;;;;;;;;;;5066656;28;20056;-73
2023/06/21 12:11:20;;;;;;;6.25;2.25;;;;;;;;;;5044167;28;20074;-73
2023/06/21 12:13:47;;;;;;;4.80;2.28;;;;;;;;;;5048890;28;20049;-73
2023/06/21 12:16:13;;;;;;;6.05;2.17;;;;;;;;;;5046861;28;20040;-73
2023/06/21 12:18:40;;;;;;;4.72;2.28;;;;;;;;;;5048172;28;20041;-73
2023/06/21 12:21:07;;;;;;;5.03;1.90;;;;;;;;;;5047526;28;20045;-74
2023/06/21 12:23:33;;;;;;;6.22;2.70;;;;;;;;;;5050960;28;20466;-74
2023/06/21 12:26:00;;;;;;;5.13;2.28;;;;;;;;;;5046759;28;20067;-74
2023/06/21 12:28:26;;;;;;;5.82;2.67;;;;;;;;;;5040020;28;20098;-73
2023/06/21 12:30:55;;;;;;;5.20;2.38;;;;;;;;;;5056206;28;20056;-73
2023/06/21 12:33:26;;;;;;;4.43;2.10;;;;;;;;;;5054643;28;20099;-73
2023/06/21 12:35:52;;;;;;;;;;;;;;;;;;5057171;28;20129;-73
2023/06/21 12:38:18;;;;;;;5.60;2.25;;;;;;;;;;5063306;28;19944;-74
2023/06/21 12:40:51;;;;;;;4.40;2.20;;;;;;;;;;5062715;28;20049;-73
2023/06/21 12:43:31;;;;;;;5.80;2.20;;;;;;;;;;5053184;28;20038;-73
2023/06/21 12:45:57;;;;;;;4.40;2.20;;;;;;;;;;5055567;28;20510;-73
2023/06/21 12:48:23;;;;;;;5.55;2.50;;;;;;;;;;5043993;28;20049;-73
2023/06/21 12:50:49;;;;;;;7.72;2.47;;;;;;;;;;5035999;28;20042;-74
2023/06/21 12:53:23;;;;;;;5.10;2.10;;;;;;;;;;5054527;28;20045;-74
2023/06/21 12:55:49;;;;;;;5.15;2.40;;;;;;;;;;5060101;28;20110;-74
2023/06/21 12:58:21;;;;;;;4.95;2.03;;;;;;;;;;5053264;28;20052;-73
2023/06/21 13:00:48;;;;;;;6.45;2.22;;;;;;;;;;5054942;28;20060;-73
2023/06/21 13:03:15;;;;;;;6.75;2.58;;;;;;;;;;5053750;28;20499;-73
2023/06/21 13:05:42;;;;;;;5.68;2.70;;;;;;;;;;5057483;28;20099;-73
2023/06/21 13:08:08;;;;;;;4.93;2.33;;;;;;;;;;5055311;28;20418;-75
2023/06/21 13:10:34;;;;;;;4.53;2.35;;;;;;;;;;5056190;28;20041;-73
2023/06/21 13:13:00;;;;;;;6.70;2.60;;;;;;;;;;5054373;28;20041;-73
2023/06/21 13:15:26;;;;;;;7.10;3.40;;;;;;;;;;5055126;28;20053;-73
2023/06/21 13:17:52;;;;;;;7.82;2.95;;;;;;;;;;5055832;28;20045;-74
2023/06/21 13:20:18;;;;;;;7.30;2.88;;;;;;;;;;5056485;28;20044;-73
2023/06/21 13:22:44;;;;;;;5.05;2.58;;;;;;;;;;5054967;28;20049;-73
2023/06/21 13:25:10;;;;;;;5.68;2.72;;;;;;;;;;5056143;28;20067;-73
2023/06/21 13:27:36;;;;;;;5.78;2.88;;;;;;;;;;5044719;28;20053;-74
2023/06/21 13:30:04;;;;;;;5.47;3.20;;;;;;;;;;5053071;28;20045;-74
2023/06/21 13:32:30;;;;;;;5.25;2.60;;;;;;;;;;5056420;28;20396;-73
2023/06/21 13:34:56;;;;;;;6.70;2.90;;;;;;;;;;5057794;28;20045;-73
2023/06/21 13:37:22;;;;;;;4.72;2.60;;;;;;;;;;5051446;28;20053;-73
2023/06/21 13:39:48;;;;;;;7.10;3.10;;;;;;;;;;5057967;28;20053;-73
2023/06/21 13:42:14;;;;;;;6.78;3.22;;;;;;;;;;5055878;28;20062;-74
2023/06/21 13:44:40;;;;;;;5.80;2.97;;;;;;;;;;5056781;28;20057;-69
2023/06/21 13:47:08;;;;;;;5.38;2.80;;;;;;;;;;5055806;28;20367;-70
2023/06/21 13:49:36;;;;;;;5.50;2.70;;;;;;;;;;5034620;28;20132;-72
2023/06/21 13:52:02;;;;;;;6.65;2.90;;;;;;;;;;5056102;28;20064;-69
2023/06/21 13:54:28;;;;;;;7.97;2.80;;;;;;;;;;5053176;28;20056;-69
2023/06/21 13:56:55;;;;;;;5.35;3.25;;;;;;;;;;5053821;28;20128;-70
2023/06/21 13:59:21;;;;;;;7.93;3.00;;;;;;;;;;5051812;28;20052;-70
2023/06/21 14:01:48;;;;;;;4.88;2.67;;;;;;;;;;5033472;28;20049;-70
2023/06/21 14:04:14;;;;;;;6.28;2.92;;;;;;;;;;5044138;28;20518;-71
2023/06/21 14:06:40;;;;;;;6.03;2.70;;;;;;;;;;5049832;28;20044;-70
2023/06/21 14:09:06;;;;;;;5.03;2.70;;;;;;;;;;5061185;28;20040;-70
2023/06/21 14:11:32;;;;;;;5.68;3.00;;;;;;;;;;5051081;28;20118;-70
2023/06/21 14:13:58;;;;;;;5.28;2.30;;;;;;;;;;5054861;28;20048;-71
2023/06/21 14:16:24;;;;;;;6.50;2.60;;;;;;;;;;5066443;28;20033;-71
2023/06/21 14:18:50;;;;;;;5.03;2.40;;;;;;;;;;5034334;28;20053;-71
2023/06/21 14:21:16;;;;;;;4.60;2.20;;;;;;;;;;5052745;28;20136;-70
2023/06/21 14:23:42;;;;;;;5.07;2.50;;;;;;;;;;5051946;28;20120;-71
2023/06/21 14:26:08;;;;;;;4.25;2.30;;;;;;;;;;5049236;28;20063;-70
2023/06/21 14:28:34;;;;;;;6.93;2.10;;;;;;;;;;5046219;28;20088;-70